ベロオリゾンテ の空港の天気 - METARとTAF

タンクレド・ネヴェス国際空港 ( SBCF / CNF ) - ブラジル ミナスジェライス州ベロオリゾンテ
飛行場実況気象(Metar)
観測時間05/28 20:00 BRT (05/28 23:00 UTC)
風向・風速東北東 3m/s
視程10km以上
天気現象
なし
気温19℃
湿度64%
気圧1020hPa
METARSBCF 282300Z 06006KT CAVOK 19/12 Q1020
過去の天気等 Google飛行場航空写真 Wunderground天気予報

過去48時間のMETAR

飛行場予報(TAF)
発表時間: 5/28 13:00 BRT (5/28 16:00 UTC)
予報対象時間: 28日15時 BRT ~ 29日15時 BRT
風向・風速北 3m/s
視程10km以上
少しの雲 雲底高度 1220m
28日17時 BRT ~ 28日19時 BRT に徐々に
風向・風速北東 2m/s
29日0時 BRT ~ 29日2時 BRT に徐々に
風向・風速東南東 3m/s
29日6時 BRT ~ 29日8時 BRT に徐々に
風向・風速東北東 4m/s
29日11時 BRT ~ 29日13時 BRT に徐々に
風向・風速北 4m/s
全天の4割程度の雲 雲底高度 1220m
TAF SBCF 281600Z 2818/2918 35005KT 9999 FEW040 TN14/2909Z TX25/2917Z
BECMG 2820/2822 04004KT
BECMG 2903/2905 12005KT
BECMG 2909/2911 06007KT
BECMG 2914/2916 36007KT SCT040 RMK PGQ